American Endurance — KAED — position and weather

sailwx.info

Track history (hours):
 
Tides and Currents Weather Stations Pressure Air Temp Water Temp Dewpoint Dewpoint Depression Visibility Wind Speed Wind Dir Waves Ship Positions

American Endurance

Owner: Crowley Petroleum Services, Jacksonville, FL. More information available from US FCC via Universal Licensing System and Coast Guard Vessel Documentation Center.

Last reported at 2017-Sep-19 15:05 UTC. Time now 2017-Sep-22 01:13 UTC.
Position N 48°08' W 125°20'.

Length 183 m; draft 12.1 m.

Type: Tanker. MMSI: 369040000.

Date/timePositionNaut miles runAvg speedWind from/ knotsBaromVisibWave heightAir tempDewpointWater temp
2017-Sep-19 15:05N 48°08' W 125°20'512.7
2017-Sep-19 14:42N 48°13' W 125°17'412.7
2017-Sep-19 14:25N 48°16' W 125°14'512.5
2017-Sep-19 14:00N 48°21' W 125°11'612.5
2017-Sep-19 13:30N 48°26' W 125°06'612.2
2017-Sep-19 13:00N 48°30' W 124°60'612.6
2017-Sep-19 12:30N 48°30' W 124°50'612.8
2017-Sep-19 12:01N 48°30' W 124°41'713.3
2017-Sep-19 11:30N 48°27' W 124°31'713.2
2017-Sep-19 11:01N 48°25' W 124°22'612.5
2017-Sep-19 10:31N 48°22' W 124°13'712.8
2017-Sep-19 10:00N 48°20' W 124°05'612.7
2017-Sep-19 09:31N 48°17' W 123°56'612.4
2017-Sep-19 09:00N 48°16' W 123°46'612.4
2017-Sep-19 08:30N 48°16' W 123°37'612.1
2017-Sep-19 08:00N 48°14' W 123°28'612.6
2017-Sep-19 07:30N 48°09' W 123°23'611.8
2017-Sep-19 07:00N 48°11' W 123°15'713.3
2017-Sep-19 06:30N 48°16' W 123°08'613.0
2017-Sep-19 06:00N 48°20' W 123°00'713.2
2017-Sep-19 05:30N 48°23' W 122°52'611.9
2017-Sep-19 04:58N 48°28' W 122°45'7 8.4
2017-Sep-19 04:07N 48°31' W 122°36'1 3.0
2017-Sep-19 03:40N 48°31' W 122°34'0 0.0
2017-Sep-17 06:21N 48°31' W 122°34'0 1.3
2017-Sep-17 06:00N 48°31' W 122°35'2 3.9
2017-Sep-17 05:30N 48°31' W 122°38'3 6.8
2017-Sep-17 05:00N 48°31' W 122°43'4 8.7
2017-Sep-17 04:30N 48°27' W 122°45'5 9.3
2017-Sep-17 04:00N 48°23' W 122°50'611.2
2017-Sep-17 03:30N 48°20' W 122°57'611.1
2017-Sep-17 02:59N 48°17' W 123°04'611.7
2017-Sep-17 02:30N 48°15' W 123°12'612.0
2017-Sep-17 02:00N 48°11' W 123°20'5 9.3
2017-Sep-17 01:30N 48°11' W 123°26'511.0
2017-Sep-17 01:00N 48°13' W 123°34'510.7
2017-Sep-17 00:30N 48°13' W 123°42'510.3
2017-Sep-17 00:00N 48°13' W 123°49'5 9.5
2017-Sep-16 23:29N 48°14' W 123°57'510.5
2017-Sep-16 23:00N 48°16' W 124°04'510.7
2017-Sep-16 22:30N 48°18' W 124°11'511.0
2017-Sep-16 22:00N 48°20' W 124°18'511.1
2017-Sep-16 21:30N 48°23' W 124°26'510.6
2017-Sep-16 21:00N 48°25' W 124°33'510.8
2017-Sep-16 20:30N 48°27' W 124°41'510.9
2017-Sep-16 20:00N 48°28' W 124°49'611.3
2017-Sep-16 19:29N 48°28' W 124°57'611.7
2017-Sep-16 18:57N 48°28' W 125°07'511.4
2017-Sep-16 18:30N 48°29' W 125°15'611.4
2017-Sep-16 18:00N 48°29' W 125°23'611.6
2017-Sep-16 17:30N 48°28' W 125°32'611.7
2017-Sep-16 17:01N 48°28' W 125°41'611.4
2017-Sep-16 16:30N 48°27' W 125°49'611.3
2017-Sep-16 16:01N 48°29' W 125°57'611.4
2017-Sep-16 15:30N 48°29' W 126°06'611.3
2017-Sep-16 15:00N 48°30' W 126°14'5 9.6
2017-Sep-16 14:30N 48°30' W 126°22'3 6.1
2017-Sep-16 14:00N 48°30' W 126°26'22012.6
2017-Sep-15 20:32N 50°17' W 131°22'113.4
2017-Sep-15 20:30N 50°17' W 131°22'3714.7
2017-Sep-15 18:00N 50°36' W 132°12'   320 / 141024.5 5.4 13.0 15.1
Track history (hours):
 
Tides and Currents Weather Stations Pressure Air Temp Water Temp Dewpoint Dewpoint Depression Visibility Wind Speed Wind Dir Waves Ship Positions

American Endurance

Owner: Crowley Petroleum Services, Jacksonville, FL. More information available from US FCC via Universal Licensing System and Coast Guard Vessel Documentation Center.

Last reported at 2017-Sep-19 15:05 UTC. Time now 2017-Sep-22 01:13 UTC.
Position N 48°08' W 125°20'.

Length 183 m; draft 12.1 m.

Type: Tanker. MMSI: 369040000.

Date/timePositionNaut miles runAvg speedWind from/ knotsBaromVisibWave heightAir tempDewpointWater temp
2017-Sep-19 15:05N 48°08' W 125°20'512.7
2017-Sep-19 14:42N 48°13' W 125°17'412.7
2017-Sep-19 14:25N 48°16' W 125°14'512.5
2017-Sep-19 14:00N 48°21' W 125°11'612.5
2017-Sep-19 13:30N 48°26' W 125°06'612.2
2017-Sep-19 13:00N 48°30' W 124°60'612.6
2017-Sep-19 12:30N 48°30' W 124°50'612.8
2017-Sep-19 12:01N 48°30' W 124°41'713.3
2017-Sep-19 11:30N 48°27' W 124°31'713.2
2017-Sep-19 11:01N 48°25' W 124°22'612.5
2017-Sep-19 10:31N 48°22' W 124°13'712.8
2017-Sep-19 10:00N 48°20' W 124°05'612.7
2017-Sep-19 09:31N 48°17' W 123°56'612.4
2017-Sep-19 09:00N 48°16' W 123°46'612.4
2017-Sep-19 08:30N 48°16' W 123°37'612.1
2017-Sep-19 08:00N 48°14' W 123°28'612.6
2017-Sep-19 07:30N 48°09' W 123°23'611.8
2017-Sep-19 07:00N 48°11' W 123°15'713.3
2017-Sep-19 06:30N 48°16' W 123°08'613.0
2017-Sep-19 06:00N 48°20' W 123°00'713.2
2017-Sep-19 05:30N 48°23' W 122°52'611.9
2017-Sep-19 04:58N 48°28' W 122°45'7 8.4
2017-Sep-19 04:07N 48°31' W 122°36'1 3.0
2017-Sep-19 03:40N 48°31' W 122°34'0 0.0
2017-Sep-17 06:21N 48°31' W 122°34'0 1.3
2017-Sep-17 06:00N 48°31' W 122°35'2 3.9
2017-Sep-17 05:30N 48°31' W 122°38'3 6.8
2017-Sep-17 05:00N 48°31' W 122°43'4 8.7
2017-Sep-17 04:30N 48°27' W 122°45'5 9.3
2017-Sep-17 04:00N 48°23' W 122°50'611.2
2017-Sep-17 03:30N 48°20' W 122°57'611.1
2017-Sep-17 02:59N 48°17' W 123°04'611.7
2017-Sep-17 02:30N 48°15' W 123°12'612.0
2017-Sep-17 02:00N 48°11' W 123°20'5 9.3
2017-Sep-17 01:30N 48°11' W 123°26'511.0
2017-Sep-17 01:00N 48°13' W 123°34'510.7
2017-Sep-17 00:30N 48°13' W 123°42'510.3
2017-Sep-17 00:00N 48°13' W 123°49'5 9.5
2017-Sep-16 23:29N 48°14' W 123°57'510.5
2017-Sep-16 23:00N 48°16' W 124°04'510.7
2017-Sep-16 22:30N 48°18' W 124°11'511.0
2017-Sep-16 22:00N 48°20' W 124°18'511.1
2017-Sep-16 21:30N 48°23' W 124°26'510.6
2017-Sep-16 21:00N 48°25' W 124°33'510.8
2017-Sep-16 20:30N 48°27' W 124°41'510.9
2017-Sep-16 20:00N 48°28' W 124°49'611.3
2017-Sep-16 19:29N 48°28' W 124°57'611.7
2017-Sep-16 18:57N 48°28' W 125°07'511.4
2017-Sep-16 18:30N 48°29' W 125°15'611.4
2017-Sep-16 18:00N 48°29' W 125°23'611.6
2017-Sep-16 17:30N 48°28' W 125°32'611.7
2017-Sep-16 17:01N 48°28' W 125°41'611.4
2017-Sep-16 16:30N 48°27' W 125°49'611.3
2017-Sep-16 16:01N 48°29' W 125°57'611.4
2017-Sep-16 15:30N 48°29' W 126°06'611.3
2017-Sep-16 15:00N 48°30' W 126°14'5 9.6
2017-Sep-16 14:30N 48°30' W 126°22'3 6.1
2017-Sep-16 14:00N 48°30' W 126°26'22012.6
2017-Sep-15 20:32N 50°17' W 131°22'113.4
2017-Sep-15 20:30N 50°17' W 131°22'3714.7
2017-Sep-15 18:00N 50°36' W 132°12'   320 / 141024.5 5.4 13.0 15.1

Dump ship's entire track history